createdAt,value
2018-12-19T00:01:32.337Z,96.53
2018-12-19T00:04:41.544Z,99.93
2018-12-19T00:07:50.864Z,98.47
2018-12-19T00:11:00.218Z,93.60
2018-12-19T00:14:09.541Z,101.47
2018-12-19T00:17:18.846Z,91.87
2018-12-19T00:20:28.144Z,88.43
2018-12-19T00:23:37.389Z,86.73
2018-12-19T00:26:46.751Z,82.43
2018-12-19T00:29:55.956Z,87.77
2018-12-19T00:33:05.376Z,87.90
2018-12-19T00:36:14.776Z,87.07
2018-12-19T00:39:24.180Z,79.40
2018-12-19T00:42:33.563Z,78.97
2018-12-19T00:45:42.912Z,82.17
2018-12-19T00:48:52.186Z,70.23
2018-12-19T00:52:01.565Z,74.03
2018-12-19T00:55:10.832Z,73.23
2018-12-19T00:58:20.119Z,65.50
2018-12-19T01:01:29.500Z,70.20
2018-12-19T01:04:38.893Z,64.47
2018-12-19T01:07:48.348Z,72.13
2018-12-19T01:10:57.760Z,72.23
2018-12-19T01:14:07.369Z,67.90
2018-12-19T01:17:16.757Z,77.00
2018-12-19T01:20:26.098Z,73.63
2018-12-19T01:23:35.335Z,78.13
2018-12-19T01:26:44.589Z,77.70
2018-12-19T01:29:53.839Z,70.20
2018-12-19T01:33:03.326Z,65.10
2018-12-19T01:36:12.824Z,69.90
2018-12-19T01:39:22.607Z,65.83
2018-12-19T01:42:31.996Z,62.93
2018-12-19T01:45:41.168Z,65.83
2018-12-19T01:48:50.588Z,65.53
2018-12-19T01:51:59.852Z,60.07
2018-12-19T01:55:09.223Z,63.03
2018-12-19T01:58:18.631Z,63.97
2018-12-19T02:01:34.544Z,62.63
2018-12-19T02:04:43.962Z,64.90
2018-12-19T02:07:53.328Z,63.27
2018-12-19T02:11:02.589Z,67.83
2018-12-19T02:14:11.948Z,67.03
2018-12-19T02:17:21.192Z,66.07
2018-12-19T02:20:30.483Z,65.93
2018-12-19T02:23:39.716Z,62.63
2018-12-19T02:26:49.212Z,64.37
2018-12-19T02:29:58.712Z,72.40
2018-12-19T02:33:08.130Z,73.80
2018-12-19T02:36:17.503Z,66.07
2018-12-19T02:39:26.910Z,70.27
2018-12-19T02:42:36.916Z,66.97
2018-12-19T02:45:46.167Z,68.17
2018-12-19T02:48:55.566Z,71.33
2018-12-19T02:52:05.081Z,70.57
2018-12-19T02:55:14.343Z,68.53
2018-12-19T02:58:23.720Z,69.23
2018-12-19T03:01:33.194Z,66.83
2018-12-19T03:04:42.609Z,65.47
2018-12-19T03:07:51.951Z,70.43
2018-12-19T03:11:01.427Z,76.67
2018-12-19T03:14:10.886Z,61.63
2018-12-19T03:17:20.078Z,71.07
2018-12-19T03:20:29.339Z,68.70
2018-12-19T03:23:38.758Z,71.73
2018-12-19T03:26:48.136Z,70.90
2018-12-19T03:29:57.487Z,64.47
2018-12-19T03:33:06.857Z,67.60
2018-12-19T03:36:16.346Z,64.43
2018-12-19T03:39:25.535Z,62.70
2018-12-19T03:42:34.825Z,64.17
2018-12-19T03:45:44.211Z,62.77
2018-12-19T03:48:56.208Z,66.37
2018-12-19T03:52:05.903Z,65.57
2018-12-19T03:55:15.425Z,61.33
2018-12-19T03:58:24.661Z,66.63
2018-12-19T04:01:34.063Z,65.97
2018-12-19T04:04:43.575Z,70.93
2018-12-19T04:07:52.829Z,70.33
2018-12-19T04:11:02.152Z,62.17
2018-12-19T04:14:11.486Z,73.33
2018-12-19T04:17:20.800Z,61.57
2018-12-19T04:20:30.037Z,61.17
2018-12-19T04:23:39.482Z,60.10
2018-12-19T04:26:49.040Z,67.50
2018-12-19T04:29:59.608Z,62.17
2018-12-19T04:33:08.829Z,70.90
2018-12-19T04:36:18.206Z,63.70
2018-12-19T04:39:27.709Z,64.43
2018-12-19T04:42:37.121Z,73.63
2018-12-19T04:45:46.602Z,64.27
2018-12-19T04:48:58.377Z,61.57
2018-12-19T04:52:07.825Z,67.83
2018-12-19T04:55:20.637Z,63.77
2018-12-19T04:58:29.993Z,63.30
2018-12-19T05:01:39.220Z,66.00
2018-12-19T05:04:48.548Z,59.90
2018-12-19T05:07:58.274Z,58.20
2018-12-19T05:11:07.632Z,63.30
2018-12-19T05:14:17.370Z,59.73
2018-12-19T05:17:26.897Z,59.47
2018-12-19T05:20:36.904Z,61.37
2018-12-19T05:23:46.216Z,63.87
2018-12-19T05:26:55.512Z,56.00
2018-12-19T05:30:05.629Z,56.40
2018-12-19T05:33:15.798Z,57.40
2018-12-19T05:36:26.499Z,50.80
2018-12-19T05:39:37.785Z,55.87
2018-12-19T05:42:47.924Z,50.30
2018-12-19T05:45:57.405Z,49.97
2018-12-19T05:49:06.794Z,47.33
2018-12-19T05:52:15.999Z,48.87
2018-12-19T05:55:25.286Z,48.83
2018-12-19T05:58:34.757Z,48.63
2018-12-19T06:01:44.064Z,47.37
2018-12-19T06:04:53.376Z,48.30
2018-12-19T06:08:02.614Z,46.17
2018-12-19T06:11:11.979Z,45.07
2018-12-19T06:14:21.300Z,44.93
2018-12-19T06:17:30.668Z,44.53
2018-12-19T06:20:39.919Z,41.33
2018-12-19T06:23:49.126Z,50.70
2018-12-19T06:26:58.617Z,43.70
2018-12-19T06:30:08.066Z,41.60
2018-12-19T06:33:17.493Z,44.70
2018-12-19T06:36:27.029Z,43.87
2018-12-19T06:39:36.381Z,42.37
2018-12-19T06:42:45.806Z,43.43
2018-12-19T06:45:55.064Z,46.20
2018-12-19T06:49:04.489Z,46.33
2018-12-19T06:52:13.811Z,44.03
2018-12-19T06:55:23.030Z,42.40
2018-12-19T06:58:32.397Z,47.13
2018-12-19T07:01:41.800Z,43.40
2018-12-19T07:04:51.260Z,43.87
2018-12-19T07:08:00.564Z,44.50
2018-12-19T07:11:09.912Z,42.50
2018-12-19T07:14:19.247Z,44.37
2018-12-19T07:17:28.531Z,44.70
2018-12-19T07:20:37.740Z,41.23
2018-12-19T07:23:47.086Z,41.87
2018-12-19T07:26:56.569Z,41.97
2018-12-19T07:30:06.522Z,40.07
2018-12-19T07:33:16.074Z,36.53
2018-12-19T07:36:25.390Z,37.93
2018-12-19T07:39:34.598Z,46.47
2018-12-19T07:42:44.718Z,41.40
2018-12-19T07:45:54.091Z,40.57
2018-12-19T07:49:03.741Z,38.50
2018-12-19T07:52:13.077Z,37.17
2018-12-19T07:55:22.598Z,38.43
2018-12-19T07:58:31.915Z,40.37
2018-12-19T08:01:41.179Z,48.10
2018-12-19T08:04:50.505Z,39.07
2018-12-19T08:08:00.148Z,40.20
2018-12-19T08:11:09.550Z,39.70
2018-12-19T08:14:19.012Z,40.33
2018-12-19T08:17:28.226Z,37.67
2018-12-19T08:20:37.577Z,35.63
2018-12-19T08:23:46.994Z,35.40
2018-12-19T08:26:56.368Z,38.93
2018-12-19T08:30:08.305Z,34.23
2018-12-19T08:33:17.568Z,40.60
2018-12-19T08:36:27.039Z,37.23
2018-12-19T08:39:36.348Z,38.13
2018-12-19T08:42:45.515Z,38.33
2018-12-19T08:45:55.057Z,32.43
2018-12-19T08:49:04.307Z,32.70
2018-12-19T08:52:13.560Z,33.77
2018-12-19T08:55:22.900Z,37.00
2018-12-19T08:58:32.309Z,37.10
2018-12-19T09:01:41.524Z,36.20
2018-12-19T09:04:50.889Z,32.20
2018-12-19T09:08:00.232Z,36.60
2018-12-19T09:11:09.734Z,34.03
2018-12-19T09:14:19.104Z,37.00
2018-12-19T09:17:28.491Z,35.47
2018-12-19T09:20:37.847Z,36.00
2018-12-19T09:23:47.253Z,32.77
2018-12-19T09:26:56.725Z,33.83
2018-12-19T09:30:06.459Z,29.77
2018-12-19T09:33:15.745Z,33.40
2018-12-19T09:36:25.110Z,33.50
2018-12-19T09:39:34.646Z,33.30
2018-12-19T09:42:43.856Z,32.30
2018-12-19T09:47:38.646Z,36.00
2018-12-19T09:50:48.059Z,32.53
2018-12-19T09:53:57.396Z,32.13
2018-12-19T09:57:06.700Z,36.50
2018-12-19T10:00:22.179Z,31.67
2018-12-19T10:03:31.648Z,32.43
2018-12-19T10:06:41.260Z,33.47
2018-12-19T10:09:53.458Z,33.20
2018-12-19T10:13:02.769Z,33.40
2018-12-19T10:16:11.949Z,29.70
2018-12-19T10:19:21.231Z,34.37
2018-12-19T10:22:31.429Z,30.83
2018-12-19T10:25:40.808Z,33.43
2018-12-19T10:28:50.137Z,29.90
2018-12-19T10:31:59.353Z,32.43
2018-12-19T10:35:10.524Z,32.93
2018-12-19T10:38:19.909Z,32.37
2018-12-19T10:41:29.242Z,30.20
2018-12-19T10:44:38.611Z,38.23
2018-12-19T10:47:48.009Z,30.17
2018-12-19T10:50:57.326Z,28.27
2018-12-19T10:54:06.844Z,33.33
2018-12-19T10:57:16.233Z,31.80
2018-12-19T11:00:31.004Z,21.63
2018-12-19T11:03:40.608Z,26.90
2018-12-19T11:06:49.918Z,30.13
2018-12-19T11:09:59.422Z,29.93
2018-12-19T11:13:08.997Z,31.83
2018-12-19T11:16:18.478Z,31.70
2018-12-19T11:19:27.878Z,26.67
2018-12-19T11:22:37.241Z,29.10
2018-12-19T11:25:46.700Z,30.77
2018-12-19T11:28:55.933Z,30.63
2018-12-19T11:32:05.184Z,29.57
2018-12-19T11:35:14.516Z,28.30
2018-12-19T11:38:23.877Z,29.43
2018-12-19T11:41:38.763Z,31.37
2018-12-19T11:44:44.576Z,33.40
2018-12-19T11:47:53.835Z,30.53
2018-12-19T11:51:03.153Z,31.77
2018-12-19T11:54:12.529Z,28.40
2018-12-19T11:57:22.049Z,28.37
2018-12-19T12:00:31.633Z,27.83
2018-12-19T12:03:40.849Z,29.27
2018-12-19T12:06:50.181Z,31.40
2018-12-19T12:09:59.696Z,32.00
2018-12-19T12:13:08.933Z,29.83
2018-12-19T12:16:18.273Z,29.70
2018-12-19T12:19:27.566Z,28.07
2018-12-19T12:22:37.008Z,24.63
2018-12-19T12:25:46.274Z,27.63
2018-12-19T12:28:55.541Z,31.57
2018-12-19T12:32:04.720Z,28.80
2018-12-19T12:35:14.020Z,29.83
2018-12-19T12:38:23.217Z,26.33
2018-12-19T12:41:32.493Z,29.50
2018-12-19T12:44:42.339Z,29.30
2018-12-19T12:47:51.514Z,32.50
2018-12-19T12:51:00.751Z,28.97
2018-12-19T12:54:10.156Z,27.53
2018-12-19T12:57:19.559Z,26.73
2018-12-19T13:00:28.969Z,29.60
2018-12-19T13:03:38.363Z,29.13
2018-12-19T13:06:47.552Z,27.73
2018-12-19T13:09:56.851Z,26.27
2018-12-19T13:13:06.099Z,24.87
2018-12-19T13:16:15.693Z,32.20
2018-12-19T13:19:25.089Z,27.93
2018-12-19T13:22:34.424Z,29.77
2018-12-19T13:25:43.852Z,26.10
2018-12-19T13:28:53.109Z,26.70
2018-12-19T13:32:02.693Z,27.43
2018-12-19T13:35:12.112Z,30.13
2018-12-19T13:38:21.566Z,25.80
2018-12-19T13:41:30.903Z,28.73
2018-12-19T13:44:40.739Z,28.00
2018-12-19T13:47:49.956Z,26.73
2018-12-19T13:50:59.326Z,30.97
2018-12-19T13:54:08.696Z,26.57
2018-12-19T13:57:17.996Z,25.50
2018-12-19T14:00:27.768Z,29.53
2018-12-19T14:03:37.003Z,24.80
2018-12-19T14:06:46.379Z,27.10
2018-12-19T14:09:55.601Z,28.23
2018-12-19T14:13:04.991Z,26.10
2018-12-19T14:16:14.546Z,32.00
2018-12-19T14:19:24.031Z,27.53
2018-12-19T14:22:33.470Z,30.57
2018-12-19T14:25:42.716Z,28.90
2018-12-19T14:28:52.105Z,35.60
2018-12-19T14:32:01.510Z,31.93
2018-12-19T14:35:10.908Z,29.90
2018-12-19T14:38:20.080Z,29.57
2018-12-19T14:41:29.418Z,29.70
2018-12-19T14:44:38.758Z,26.67
2018-12-19T14:47:48.064Z,30.23
2018-12-19T14:50:57.679Z,29.00
2018-12-19T14:54:06.970Z,29.80
2018-12-19T14:57:16.252Z,31.97
2018-12-19T15:00:25.776Z,30.63
2018-12-19T15:03:34.940Z,36.47
2018-12-19T15:06:44.138Z,28.53
2018-12-19T15:09:53.488Z,28.93
2018-12-19T15:13:02.988Z,25.93
2018-12-19T15:16:12.259Z,28.93
2018-12-19T15:19:21.477Z,29.37
2018-12-19T15:22:30.732Z,32.93
2018-12-19T15:25:40.042Z,31.57
2018-12-19T15:28:49.358Z,31.97
2018-12-19T15:31:58.798Z,29.23
2018-12-19T15:35:08.293Z,26.20
2018-12-19T15:38:17.581Z,30.20
2018-12-19T15:41:27.017Z,27.43
2018-12-19T15:44:36.400Z,30.27
2018-12-19T15:47:45.561Z,29.40
2018-12-19T15:50:55.072Z,29.47
2018-12-19T15:54:04.357Z,29.30
2018-12-19T15:57:13.587Z,27.37
2018-12-19T16:00:23.382Z,25.73
2018-12-19T16:03:32.611Z,27.80
2018-12-19T16:06:42.048Z,27.93
2018-12-19T16:09:51.264Z,30.73
2018-12-19T16:13:00.677Z,34.73
2018-12-19T16:16:10.144Z,29.17
2018-12-19T16:19:19.355Z,29.40
2018-12-19T16:22:28.688Z,30.13
2018-12-19T16:25:38.137Z,30.83
2018-12-19T16:28:47.580Z,30.40
2018-12-19T16:31:57.034Z,30.30
2018-12-19T16:35:06.868Z,30.53
2018-12-19T16:38:16.274Z,31.23
2018-12-19T16:41:25.733Z,40.57
2018-12-19T16:44:35.066Z,40.23
2018-12-19T16:47:44.502Z,40.43
2018-12-19T16:50:53.786Z,33.20
2018-12-19T16:54:03.162Z,35.47
2018-12-19T16:57:12.552Z,32.87
2018-12-19T17:00:22.092Z,30.00
2018-12-19T17:03:31.404Z,32.13
2018-12-19T17:06:40.702Z,32.27
2018-12-19T17:09:50.129Z,32.20
2018-12-19T17:12:59.521Z,32.03
2018-12-19T17:16:08.837Z,31.40
2018-12-19T17:19:18.174Z,36.20
2018-12-19T17:22:27.516Z,33.50
2018-12-19T17:25:36.977Z,31.00
2018-12-19T17:28:46.284Z,30.57
2018-12-19T17:31:55.568Z,29.40
2018-12-19T17:35:05.374Z,32.93
2018-12-19T17:38:14.776Z,30.77
2018-12-19T17:41:24.245Z,30.23
2018-12-19T17:44:33.626Z,38.67
2018-12-19T17:47:43.064Z,38.00
2018-12-19T17:50:52.457Z,34.60
2018-12-19T17:54:01.832Z,34.10
2018-12-19T17:57:11.191Z,35.07
2018-12-19T18:00:20.876Z,36.87
2018-12-19T18:03:30.160Z,34.63
2018-12-19T18:06:39.538Z,39.90
2018-12-19T18:09:49.296Z,37.30
2018-12-19T18:12:58.765Z,42.00
2018-12-19T18:16:08.088Z,37.73
2018-12-19T18:19:23.217Z,39.83
2018-12-19T18:22:29.001Z,37.60
2018-12-19T18:25:38.226Z,36.93
2018-12-19T18:28:47.589Z,38.00
2018-12-19T18:31:56.903Z,34.30
2018-12-19T18:35:07.100Z,35.33
2018-12-19T18:38:16.396Z,38.50
2018-12-19T18:41:25.839Z,35.23
2018-12-19T18:44:35.112Z,38.20
2018-12-19T18:47:44.509Z,43.60
2018-12-19T18:50:53.752Z,39.80
2018-12-19T18:54:02.992Z,35.43
2018-12-19T18:57:13.301Z,39.50
2018-12-19T19:00:31.974Z,39.50
2018-12-19T19:03:41.326Z,39.07
2018-12-19T19:06:50.768Z,37.23
2018-12-19T19:10:00.175Z,38.83
2018-12-19T19:13:09.396Z,38.87
2018-12-19T19:16:18.681Z,41.03
2018-12-19T19:19:28.167Z,42.70
2018-12-19T19:22:37.443Z,44.87
2018-12-19T19:25:46.785Z,38.07
2018-12-19T19:28:56.252Z,38.00
2018-12-19T19:32:05.963Z,40.20
2018-12-19T19:35:15.232Z,38.97
2018-12-19T19:38:24.649Z,44.83
2018-12-19T19:41:33.977Z,43.17
2018-12-19T19:44:43.354Z,42.60
2018-12-19T19:47:52.770Z,40.70
2018-12-19T19:51:02.127Z,41.63
2018-12-19T19:54:11.330Z,39.77
2018-12-19T19:57:20.633Z,40.47
2018-12-19T20:00:31.955Z,39.83
2018-12-19T20:03:41.537Z,45.17
2018-12-19T20:06:50.957Z,38.33
2018-12-19T20:10:00.332Z,44.23
2018-12-19T20:13:09.505Z,40.20
2018-12-19T20:16:18.881Z,38.87
2018-12-19T20:19:28.407Z,41.83
2018-12-19T20:22:37.774Z,40.73
2018-12-19T20:25:46.977Z,40.63
2018-12-19T20:28:56.474Z,46.63
2018-12-19T20:32:05.809Z,40.17
2018-12-19T20:35:15.146Z,36.80
2018-12-19T20:38:24.641Z,42.07
2018-12-19T20:41:34.088Z,46.43
2018-12-19T20:44:43.477Z,39.30
2018-12-19T20:47:52.695Z,41.73
2018-12-19T20:51:02.093Z,38.20
2018-12-19T20:54:11.413Z,41.00
2018-12-19T20:57:20.940Z,39.00
2018-12-19T21:00:30.348Z,40.87
2018-12-19T21:03:39.867Z,40.07
2018-12-19T21:06:49.160Z,42.17
2018-12-19T21:09:58.498Z,39.83
2018-12-19T21:13:07.856Z,39.67
2018-12-19T21:16:17.342Z,38.40
2018-12-19T21:19:26.815Z,40.37
2018-12-19T21:22:36.409Z,40.47
2018-12-19T21:25:45.753Z,39.60
2018-12-19T21:28:55.333Z,40.10
2018-12-19T21:32:04.809Z,41.43
2018-12-19T21:35:14.211Z,38.70
2018-12-19T21:38:23.503Z,42.83
2018-12-19T21:41:32.850Z,47.83
2018-12-19T21:44:42.005Z,42.87
2018-12-19T21:47:51.378Z,42.67
2018-12-19T21:51:00.885Z,42.63
2018-12-19T21:54:10.458Z,41.70
2018-12-19T21:57:19.888Z,38.53
2018-12-19T22:00:34.259Z,41.43
2018-12-19T22:03:43.556Z,46.30
2018-12-19T22:06:53.062Z,41.40
2018-12-19T22:10:02.770Z,36.53
2018-12-19T22:13:12.229Z,35.53
2018-12-19T22:16:27.232Z,40.53
2018-12-19T22:19:36.569Z,39.40
2018-12-19T22:22:45.920Z,41.03
2018-12-19T22:25:55.285Z,44.37
2018-12-19T22:29:04.677Z,40.53
2018-12-19T22:32:14.043Z,40.50
2018-12-19T22:35:23.458Z,46.67
2018-12-19T22:38:32.841Z,42.67
2018-12-19T22:41:42.232Z,44.93
2018-12-19T22:44:51.774Z,44.60
2018-12-19T22:48:01.121Z,44.37
2018-12-19T22:51:10.843Z,40.27
2018-12-19T22:54:20.253Z,41.60
2018-12-19T22:57:29.713Z,39.57
2018-12-19T23:00:44.576Z,41.10
2018-12-19T23:04:05.972Z,41.37
2018-12-19T23:07:15.501Z,41.23
2018-12-19T23:10:25.195Z,41.97
2018-12-19T23:13:34.729Z,40.07
2018-12-19T23:16:44.088Z,47.20
2018-12-19T23:19:53.483Z,42.43
2018-12-19T23:23:02.909Z,46.27
2018-12-19T23:26:12.747Z,43.50
2018-12-19T23:29:22.161Z,44.57
2018-12-19T23:32:31.733Z,43.33
2018-12-19T23:35:41.265Z,45.97
2018-12-19T23:38:50.624Z,44.40
2018-12-19T23:42:00.429Z,45.63
2018-12-19T23:45:10.827Z,43.70
2018-12-19T23:48:21.012Z,47.53
2018-12-19T23:51:30.469Z,46.17
2018-12-19T23:54:40.198Z,47.13
2018-12-19T23:57:49.832Z,45.70
